CRK123 VHHH-VMMC
Flight info
| Callsign | CRK123 |
|---|---|
| Flight time | 0h 27m |
| Altitude | 12000 |
| Route | DCT |
| Aircraft | A20N/M-V/N |
Departure
| Time | 2026-05-04 14:41 |
|---|---|
| Airport | Hong Kong International Airport (VHHH) |
Arrival
| Time | 2026-05-04 15:08 |
|---|---|
| Airport | Macau International Airport (VMMC) |
| Time | Latitude | Longitude | Altitude | Speed | Heading |
|---|---|---|---|---|---|
| 2026-05-04 14:27 | 22.31334 | 113.91727 | 37 ft | 0 kts | 251° |
| 2026-05-04 14:33 | 22.31336 | 113.91733 | 36 ft | 2 kts | 249° |
| 2026-05-04 14:33 | 22.31341 | 113.91747 | 35 ft | 2 kts | 252° |
| 2026-05-04 14:33 | 22.31345 | 113.91763 | 37 ft | 2 kts | 254° |
| 2026-05-04 14:33 | 22.31350 | 113.91780 | 35 ft | 2 kts | 257° |
| 2026-05-04 14:34 | 22.31353 | 113.91797 | 37 ft | 2 kts | 263° |
| 2026-05-04 14:34 | 22.31354 | 113.91815 | 37 ft | 2 kts | 280° |
| 2026-05-04 14:34 | 22.31346 | 113.91831 | 37 ft | 2 kts | 330° |
| 2026-05-04 14:34 | 22.31339 | 113.91835 | 35 ft | 0 kts | 340° |
| 2026-05-04 14:36 | 22.31357 | 113.91828 | 37 ft | 8 kts | 340° |
| 2026-05-04 14:37 | 22.31447 | 113.91793 | 37 ft | 19 kts | 340° |
| 2026-05-04 14:37 | 22.31536 | 113.91744 | 36 ft | 11 kts | 296° |
| 2026-05-04 14:37 | 22.31518 | 113.91674 | 37 ft | 19 kts | 259° |
| 2026-05-04 14:37 | 22.31458 | 113.91492 | 37 ft | 29 kts | 249° |
| 2026-05-04 14:38 | 22.31391 | 113.91287 | 38 ft | 31 kts | 251° |
| 2026-05-04 14:38 | 22.31316 | 113.91055 | 37 ft | 34 kts | 251° |
| 2026-05-04 14:38 | 22.31247 | 113.90837 | 37 ft | 32 kts | 250° |
| 2026-05-04 14:38 | 22.31182 | 113.90635 | 37 ft | 30 kts | 250° |
| 2026-05-04 14:39 | 22.31115 | 113.90426 | 36 ft | 29 kts | 250° |
| 2026-05-04 14:39 | 22.31046 | 113.90221 | 35 ft | 28 kts | 253° |
| 2026-05-04 14:39 | 22.30984 | 113.90018 | 36 ft | 28 kts | 251° |
| 2026-05-04 14:40 | 22.31014 | 113.89784 | 36 ft | 17 kts | 347° |
| 2026-05-04 14:40 | 22.31082 | 113.89775 | 36 ft | 6 kts | 45° |
| 2026-05-04 14:40 | 22.31105 | 113.89833 | 36 ft | 12 kts | 73° |
| 2026-05-04 14:40 | 22.31192 | 113.90119 | 36 ft | 80 kts | 72° |
| 2026-05-04 14:41 | 22.31455 | 113.90937 | 43 ft | 146 kts | 71° |
| 2026-05-04 14:41 | 22.31795 | 113.91965 | 780 ft | 144 kts | 72° |
| 2026-05-04 14:41 | 22.32462 | 113.93995 | 2489 ft | 140 kts | 73° |
| 2026-05-04 14:42 | 22.33145 | 113.96139 | 3791 ft | 171 kts | 75° |
| 2026-05-04 14:42 | 22.33475 | 113.97472 | 4390 ft | 196 kts | 82° |
| 2026-05-04 14:42 | 22.33711 | 113.99011 | 4994 ft | 226 kts | 82° |
| 2026-05-04 14:43 | 22.33988 | 114.00765 | 5961 ft | 240 kts | 81° |
| 2026-05-04 14:43 | 22.34281 | 114.02562 | 7176 ft | 245 kts | 80° |
| 2026-05-04 14:43 | 22.34343 | 114.04413 | 8277 ft | 251 kts | 101° |
| 2026-05-04 14:43 | 22.33739 | 114.06168 | 9292 ft | 255 kts | 126° |
| 2026-05-04 14:44 | 22.32539 | 114.07581 | 10310 ft | 262 kts | 140° |
| 2026-05-04 14:44 | 22.31446 | 114.09288 | 10922 ft | 294 kts | 114° |
| 2026-05-04 14:44 | 22.31058 | 114.11565 | 11491 ft | 323 kts | 89° |
| 2026-05-04 14:44 | 22.31407 | 114.14064 | 12007 ft | 350 kts | 78° |
| 2026-05-04 14:45 | 22.31969 | 114.16728 | 12466 ft | 375 kts | 77° |
| 2026-05-04 14:45 | 22.32642 | 114.19495 | 13256 ft | 385 kts | 68° |
| 2026-05-04 14:45 | 22.33964 | 114.21977 | 14131 ft | 389 kts | 48° |
| 2026-05-04 14:45 | 22.35969 | 114.23909 | 14989 ft | 387 kts | 28° |
| 2026-05-04 14:46 | 22.38407 | 114.25079 | 15653 ft | 383 kts | 11° |
| 2026-05-04 14:46 | 22.41031 | 114.25403 | 15937 ft | 376 kts | 353° |
| 2026-05-04 14:46 | 22.43554 | 114.24841 | 16048 ft | 366 kts | 333° |
| 2026-05-04 14:46 | 22.45708 | 114.23466 | 16061 ft | 357 kts | 315° |
| 2026-05-04 14:47 | 22.47284 | 114.21446 | 16062 ft | 349 kts | 297° |
| 2026-05-04 14:47 | 22.48229 | 114.19049 | 16062 ft | 346 kts | 285° |
| 2026-05-04 14:47 | 22.48783 | 114.16521 | 16063 ft | 343 kts | 277° |
| 2026-05-04 14:47 | 22.48935 | 114.13977 | 16057 ft | 343 kts | 267° |
| 2026-05-04 14:48 | 22.48550 | 114.11441 | 16056 ft | 343 kts | 253° |
| 2026-05-04 14:48 | 22.47538 | 114.09106 | 16053 ft | 346 kts | 238° |
| 2026-05-04 14:48 | 22.45897 | 114.07165 | 16057 ft | 364 kts | 221° |
| 2026-05-04 14:48 | 22.43718 | 114.05549 | 16054 ft | 394 kts | 215° |
| 2026-05-04 14:49 | 22.41293 | 114.03957 | 16056 ft | 418 kts | 214° |
| 2026-05-04 14:49 | 22.38751 | 114.02339 | 16051 ft | 422 kts | 214° |
| 2026-05-04 14:49 | 22.36403 | 114.00474 | 16054 ft | 418 kts | 225° |
| 2026-05-04 14:49 | 22.34528 | 113.98151 | 16058 ft | 414 kts | 235° |
| 2026-05-04 14:50 | 22.32820 | 113.95642 | 16053 ft | 414 kts | 234° |
| 2026-05-04 14:50 | 22.31007 | 113.93286 | 16054 ft | 417 kts | 229° |
| 2026-05-04 14:50 | 22.28851 | 113.91184 | 16057 ft | 419 kts | 221° |
| 2026-05-04 14:50 | 22.26581 | 113.89193 | 16055 ft | 416 kts | 221° |
| 2026-05-04 14:51 | 22.24399 | 113.87279 | 16050 ft | 390 kts | 221° |
| 2026-05-04 14:51 | 22.22378 | 113.85516 | 15929 ft | 367 kts | 221° |
| 2026-05-04 14:51 | 22.20424 | 113.83817 | 15446 ft | 356 kts | 221° |
| 2026-05-04 14:51 | 22.18494 | 113.82139 | 14802 ft | 353 kts | 221° |
| 2026-05-04 14:52 | 22.16590 | 113.80488 | 14191 ft | 348 kts | 221° |
| 2026-05-04 14:52 | 22.14710 | 113.78861 | 13560 ft | 344 kts | 221° |
| 2026-05-04 14:52 | 22.12855 | 113.77258 | 12977 ft | 338 kts | 221° |
| 2026-05-04 14:52 | 22.11034 | 113.75684 | 12400 ft | 333 kts | 221° |
| 2026-05-04 14:53 | 22.09240 | 113.74135 | 11849 ft | 328 kts | 220° |
| 2026-05-04 14:53 | 22.07463 | 113.72602 | 11340 ft | 323 kts | 220° |
| 2026-05-04 14:53 | 22.05708 | 113.71087 | 11131 ft | 328 kts | 220° |
| 2026-05-04 14:53 | 22.03974 | 113.69594 | 11060 ft | 310 kts | 220° |
| 2026-05-04 14:54 | 22.02339 | 113.68189 | 11051 ft | 291 kts | 220° |
| 2026-05-04 14:54 | 22.00806 | 113.66863 | 10958 ft | 275 kts | 220° |
| 2026-05-04 14:54 | 21.99351 | 113.65593 | 10852 ft | 262 kts | 221° |
| 2026-05-04 14:54 | 21.97973 | 113.64385 | 10757 ft | 249 kts | 221° |
| 2026-05-04 14:55 | 21.96664 | 113.63239 | 10669 ft | 237 kts | 221° |
| 2026-05-04 14:55 | 21.95416 | 113.62148 | 10583 ft | 225 kts | 221° |
| 2026-05-04 14:55 | 21.94229 | 113.61112 | 10509 ft | 214 kts | 221° |
| 2026-05-04 14:55 | 21.93100 | 113.60128 | 10382 ft | 205 kts | 221° |
| 2026-05-04 14:56 | 21.92001 | 113.59168 | 10210 ft | 203 kts | 221° |
| 2026-05-04 14:56 | 21.90808 | 113.58349 | 9933 ft | 212 kts | 199° |
| 2026-05-04 14:56 | 21.89335 | 113.58330 | 9641 ft | 218 kts | 167° |
| 2026-05-04 14:56 | 21.87910 | 113.58869 | 9369 ft | 216 kts | 163° |
| 2026-05-04 14:57 | 21.86506 | 113.59437 | 8987 ft | 215 kts | 161° |
| 2026-05-04 14:57 | 21.85304 | 113.60393 | 8548 ft | 218 kts | 129° |
| 2026-05-04 14:57 | 21.84758 | 113.61906 | 7877 ft | 223 kts | 95° |
| 2026-05-04 14:57 | 21.85024 | 113.63543 | 7250 ft | 223 kts | 68° |
| 2026-05-04 14:58 | 21.85694 | 113.65041 | 6770 ft | 220 kts | 62° |
| 2026-05-04 14:58 | 21.86385 | 113.66481 | 6321 ft | 217 kts | 64° |
| 2026-05-04 14:58 | 21.87224 | 113.67788 | 5882 ft | 212 kts | 37° |
| 2026-05-04 14:58 | 21.88590 | 113.68362 | 5434 ft | 216 kts | 4° |
| 2026-05-04 14:59 | 21.90107 | 113.68224 | 4978 ft | 224 kts | 346° |
| 2026-05-04 14:59 | 21.91618 | 113.67745 | 4578 ft | 228 kts | 341° |
| 2026-05-04 14:59 | 21.94631 | 113.66628 | 3898 ft | 228 kts | 342° |
| 2026-05-04 15:00 | 21.96126 | 113.66079 | 3590 ft | 227 kts | 342° |
| 2026-05-04 15:00 | 21.97619 | 113.65528 | 3292 ft | 225 kts | 343° |
| 2026-05-04 15:00 | 21.99077 | 113.64991 | 2994 ft | 223 kts | 343° |
| 2026-05-04 15:01 | 22.01993 | 113.63916 | 2417 ft | 220 kts | 345° |
| 2026-05-04 15:01 | 22.03435 | 113.63384 | 2125 ft | 219 kts | 345° |
| 2026-05-04 15:01 | 22.04872 | 113.62854 | 1844 ft | 217 kts | 345° |
| 2026-05-04 15:01 | 22.06258 | 113.62341 | 1552 ft | 203 kts | 345° |
| 2026-05-04 15:02 | 22.07545 | 113.61866 | 1312 ft | 188 kts | 346° |
| 2026-05-04 15:02 | 22.08723 | 113.61431 | 1070 ft | 171 kts | 346° |
| 2026-05-04 15:02 | 22.09795 | 113.61036 | 863 ft | 154 kts | 346° |
| 2026-05-04 15:02 | 22.10754 | 113.60681 | 673 ft | 139 kts | 345° |
| 2026-05-04 15:03 | 22.11630 | 113.60358 | 506 ft | 127 kts | 345° |
| 2026-05-04 15:03 | 22.12432 | 113.60063 | 348 ft | 117 kts | 344° |
| 2026-05-04 15:03 | 22.13198 | 113.59781 | 208 ft | 121 kts | 344° |
| 2026-05-04 15:03 | 22.14022 | 113.59482 | 49 ft | 127 kts | 344° |
| 2026-05-04 15:04 | 22.14739 | 113.59229 | 28 ft | 102 kts | 340° |
| 2026-05-04 15:04 | 22.15222 | 113.59054 | 29 ft | 50 kts | 342° |
| 2026-05-04 15:04 | 22.15779 | 113.58837 | 28 ft | 133 kts | 341° |
| 2026-05-04 15:04 | 22.16866 | 113.58528 | 360 ft | 185 kts | 356° |
| 2026-05-04 15:05 | 22.18208 | 113.58535 | 1101 ft | 199 kts | 5° |
| 2026-05-04 15:05 | 22.19600 | 113.58579 | 1253 ft | 196 kts | 5° |
| 2026-05-04 15:05 | 22.20878 | 113.58599 | 1229 ft | 172 kts | 2° |
| 2026-05-04 15:05 | 22.21918 | 113.58196 | 1130 ft | 164 kts | 309° |
| 2026-05-04 15:06 | 22.21993 | 113.57042 | 970 ft | 159 kts | 238° |
| 2026-05-04 15:06 | 22.21232 | 113.56506 | 863 ft | 143 kts | 185° |
| 2026-05-04 15:06 | 22.20292 | 113.56646 | 821 ft | 139 kts | 158° |
| 2026-05-04 15:07 | 22.18599 | 113.57564 | 569 ft | 138 kts | 150° |
| 2026-05-04 15:07 | 22.17719 | 113.58023 | 435 ft | 142 kts | 152° |
| 2026-05-04 15:07 | 22.16806 | 113.58416 | 237 ft | 142 kts | 155° |
| 2026-05-04 15:07 | 22.15879 | 113.58794 | 62 ft | 140 kts | 158° |
| 2026-05-04 15:08 | 22.15022 | 113.59117 | 28 ft | 109 kts | 162° |
| 2026-05-04 15:08 | 22.14494 | 113.59313 | 27 ft | 51 kts | 162° |
| 2026-05-04 15:08 | 22.14227 | 113.59407 | 28 ft | 26 kts | 161° |
| 2026-05-04 15:08 | 22.14161 | 113.59374 | 29 ft | 8 kts | 256° |
| 2026-05-04 15:09 | 22.14135 | 113.59290 | 28 ft | 15 kts | 254° |
| 2026-05-04 15:09 | 22.14170 | 113.59243 | 28 ft | 7 kts | 347° |
| 2026-05-04 15:09 | 22.14480 | 113.59134 | 28 ft | 93 kts | 341° |
| 2026-05-04 15:10 | 22.15093 | 113.58450 | 28 ft | 95 kts | 303° |
| 2026-05-04 15:10 | 22.15437 | 113.57894 | 28 ft | 82 kts | 303° |
| 2026-05-04 15:10 | 22.15661 | 113.57559 | 28 ft | 6 kts | 321° |
| 2026-05-04 15:11 | 22.15681 | 113.57537 | 28 ft | 6 kts | 312° |
| 2026-05-04 15:11 | 22.15694 | 113.57522 | 28 ft | 0 kts | 313° |